Quinsam — VY6800 — position and weather

sailwx.info

Track history (hours):
 
Tides and Currents Weather Stations Pressure Air Temp Water Temp Dewpoint Dewpoint Depression Visibility Wind Speed Wind Dir Waves Ship Positions

Quinsam

Last reported at 2017-Feb-25 12:26 UTC. Time now 2017-Feb-25 13:49 UTC.
Position N 49°11' W 123°52'.

Length 88 m; draft 1.5 m.

Type: Ship. MMSI: 316001266.

Date/timePositionNaut miles runAvg speedWind from/ knotsBaromVisibWave heightAir tempDewpointWater temp
2017-Feb-25 12:26N 49°11' W 123°52'0 0.0
2017-Feb-25 11:20N 49°11' W 123°52'0 0.0
2017-Feb-25 10:23N 49°11' W 123°52'0 0.0
2017-Feb-25 09:17N 49°11' W 123°52'0 0.0
2017-Feb-25 08:17N 49°11' W 123°52'0 0.0
2017-Feb-25 07:29N 49°11' W 123°52'0 0.1
2017-Feb-25 06:31N 49°11' W 123°52'0 0.1
2017-Feb-25 05:29N 49°11' W 123°52'1 1.2
2017-Feb-25 04:33N 49°10' W 123°53'1 0.9
2017-Feb-25 03:32N 49°11' W 123°52'0 0.2
2017-Feb-25 02:31N 49°11' W 123°52'0 0.0
2017-Feb-25 01:33N 49°11' W 123°52'2 1.9
2017-Feb-25 00:33N 49°10' W 123°54'1 1.0
2017-Feb-24 23:33N 49°10' W 123°56'1 1.0
2017-Feb-24 22:33N 49°10' W 123°54'2 1.9
2017-Feb-24 21:33N 49°11' W 123°52'0 0.0
2017-Feb-24 20:33N 49°11' W 123°52'0 0.5
2017-Feb-24 19:32N 49°11' W 123°52'2 2.5
2017-Feb-24 18:33N 49°10' W 123°56'0 0.0
2017-Feb-24 17:33N 49°10' W 123°56'3 2.6
2017-Feb-24 16:32N 49°11' W 123°52'0 0.3
2017-Feb-24 15:30N 49°11' W 123°52'2 2.1
2017-Feb-24 14:32N 49°10' W 123°55'2 0.3
2017-Feb-24 08:33N 49°11' W 123°52'0 0.0
2017-Feb-24 07:24N 49°11' W 123°52'1 0.6
2017-Feb-24 06:33N 49°11' W 123°52'1 0.5
2017-Feb-24 05:33N 49°11' W 123°52'1 1.1
2017-Feb-24 04:33N 49°10' W 123°53'1 1.0
2017-Feb-24 03:32N 49°11' W 123°52'0 0.0
2017-Feb-24 02:29N 49°11' W 123°52'0 0.0
2017-Feb-24 01:33N 49°11' W 123°52'2 2.0
2017-Feb-24 00:34N 49°10' W 123°54'1 0.9
2017-Feb-23 23:33N 49°10' W 123°56'1 1.0
2017-Feb-23 22:33N 49°10' W 123°54'2 1.9
2017-Feb-23 21:32N 49°11' W 123°52'0 0.0
2017-Feb-23 20:31N 49°11' W 123°52'1 1.4
2017-Feb-23 19:33N 49°11' W 123°54'2 1.6
2017-Feb-23 18:33N 49°10' W 123°56'0 0.2
2017-Feb-23 17:33N 49°10' W 123°55'2 2.2
2017-Feb-23 16:33N 49°11' W 123°52'0 0.5
2017-Feb-23 15:33N 49°11' W 123°52'2 1.8
2017-Feb-23 14:31N 49°10' W 123°54'2 0.3
2017-Feb-23 07:21N 49°11' W 123°52'3 2.3
2017-Feb-23 06:05N 49°10' W 123°56'2 2.8
2017-Feb-23 05:19N 49°11' W 123°53'0 0.3
2017-Feb-23 04:30N 49°11' W 123°52'0 0.1
2017-Feb-23 03:31N 49°11' W 123°52'2 1.6
2017-Feb-23 02:14N 49°10' W 123°55'2 2.7
2017-Feb-23 01:21N 49°11' W 123°52'0 0.1
2017-Feb-23 00:09N 49°11' W 123°52'1 0.6
2017-Feb-22 23:10N 49°11' W 123°52'2 2.7
2017-Feb-22 22:33N 49°10' W 123°55'2 1.8
2017-Feb-22 21:31N 49°11' W 123°52'0 0.5
2017-Feb-22 20:32N 49°11' W 123°52'2 1.1
2017-Feb-22 18:29N 49°10' W 123°55'0 0.0
2017-Feb-22 17:15N 49°10' W 123°55'0 0.5
2017-Feb-22 16:23N 49°10' W 123°56'1 0.4
2017-Feb-22 14:32N 49°10' W 123°55'1 0.1
2017-Feb-22 07:10N 49°10' W 123°54'1 0.3
2017-Feb-22 01:33N 49°11' W 123°52'0 0.0
2017-Feb-22 00:06N 49°11' W 123°52'3 0.4
2017-Feb-21 17:33N 49°10' W 123°56'2 1.5
2017-Feb-21 16:29N 49°10' W 123°54'1 1.3
2017-Feb-21 15:30N 49°11' W 123°52'1 1.4
2017-Feb-21 14:32N 49°10' W 123°54'2 0.0
2017-Feb-20 06:05N 49°10' W 123°56'1 1.6
2017-Feb-20 05:15N 49°10' W 123°54'0 0.1
2017-Feb-19 21:24N 49°11' W 123°53'1 1.3
2017-Feb-19 20:33N 49°11' W 123°52'2 1.9
2017-Feb-19 19:33N 49°10' W 123°54'0 0.4
2017-Feb-19 18:22N 49°10' W 123°55'1 0.6
2017-Feb-19 17:28N 49°10' W 123°56'2 1.6
2017-Feb-19 16:24N 49°11' W 123°53'1 0.1
2017-Feb-19 07:24N 49°11' W 123°52'0 0.0
2017-Feb-19 06:33N 49°11' W 123°52'0 0.0
2017-Feb-19 05:29N 49°11' W 123°52'0 0.5
2017-Feb-19 04:33N 49°11' W 123°52'0 0.0
2017-Feb-19 03:32N 49°11' W 123°52'0 0.3
2017-Feb-19 02:29N 49°11' W 123°53'2 1.2
2017-Feb-19 01:07N 49°10' W 123°55'2 0.3
2017-Feb-18 20:10N 49°11' W 123°53'1 0.7
2017-Feb-18 19:07N 49°11' W 123°52'3 4.6
2017-Feb-18 18:29N 49°10' W 123°56'1 0.4
2017-Feb-18 15:07N 49°10' W 123°54'1 0.1
2017-Feb-18 07:04N 49°10' W 123°55'1 1.9
2017-Feb-18 06:17N 49°11' W 123°53'0 0.4
2017-Feb-18 05:19N 49°11' W 123°52'0 0.2
2017-Feb-18 04:29N 49°11' W 123°52'1 0.5
2017-Feb-18 03:27N 49°11' W 123°53'1 0.7
2017-Feb-18 02:26N 49°11' W 123°52'0 0.2
2017-Feb-18 00:30N 49°11' W 123°53'2 1.7
2017-Feb-17 23:27N 49°10' W 123°55'0 0.3
2017-Feb-17 22:11N 49°10' W 123°56'2 3.3
2017-Feb-17 21:30N 49°11' W 123°53'1 0.1
2017-Feb-17 15:24N 49°11' W 123°52'1 1.5
2017-Feb-17 14:28N 49°10' W 123°54'0 0.0
2017-Feb-17 07:09N 49°10' W 123°54'1 2.4
2017-Feb-17 06:32N 49°11' W 123°52'3 1.8
2017-Feb-17 05:04N 49°10' W 123°56'2 3.3
2017-Feb-17 04:31N 49°11' W 123°53'1 1.2
2017-Feb-17 03:19N 49°10' W 123°55'2 3.0
2017-Feb-17 02:34N 49°11' W 123°52'0 0.1
2017-Feb-17 01:18N 49°11' W 123°52'3 1.6
2017-Feb-16 23:32N 49°10' W 123°56'1 1.1
2017-Feb-16 22:33N 49°10' W 123°54'0 0.4
2017-Feb-16 21:21N 49°10' W 123°54'1 1.8
2017-Feb-16 20:33N 49°11' W 123°52'2 1.6
2017-Feb-16 19:33N 49°10' W 123°54'1 1.2
2017-Feb-16 18:32N 49°10' W 123°56'1 0.5
2017-Feb-16 17:30N 49°10' W 123°55'2 1.6
2017-Feb-16 16:27N 49°11' W 123°53'1 0.7
2017-Feb-16 14:33N 49°10' W 123°55'2 1.8
2017-Feb-16 13:24N 49°11' W 123°52'0 0.0
2017-Feb-16 12:21N 49°11' W 123°52'0 0.0
2017-Feb-16 08:09N 49°11' W 123°52'0 0.0
2017-Feb-16 07:26N 49°11' W 123°52'3 3.3
2017-Feb-16 06:33N 49°10' W 123°56'3 2.6
2017-Feb-16 05:33N 49°11' W 123°52'1 1.0
2017-Feb-16 04:34N 49°11' W 123°54'1 1.3
2017-Feb-16 03:33N 49°11' W 123°52'0 0.0
2017-Feb-16 02:32N 49°11' W 123°52'0 0.0
2017-Feb-16 01:32N 49°11' W 123°52'2 2.1
2017-Feb-16 00:33N 49°10' W 123°55'1 0.8
2017-Feb-15 23:30N 49°10' W 123°56'1 1.6
2017-Feb-15 22:33N 49°10' W 123°54'1 1.4
2017-Feb-15 21:33N 49°11' W 123°52'0 0.0
2017-Feb-15 20:33N 49°11' W 123°52'2 1.6
2017-Feb-15 19:33N 49°10' W 123°54'1 1.3
2017-Feb-15 18:33N 49°10' W 123°56'1 1.2
2017-Feb-15 17:33N 49°10' W 123°54'2 1.7
2017-Feb-15 16:32N 49°11' W 123°52'0 0.0
2017-Feb-15 15:33N 49°11' W 123°52'2 2.0
2017-Feb-15 14:33N 49°10' W 123°55'  
Track history (hours):
 
Tides and Currents Weather Stations Pressure Air Temp Water Temp Dewpoint Dewpoint Depression Visibility Wind Speed Wind Dir Waves Ship Positions

Quinsam

Last reported at 2017-Feb-25 12:26 UTC. Time now 2017-Feb-25 13:49 UTC.
Position N 49°11' W 123°52'.

Length 88 m; draft 1.5 m.

Type: Ship. MMSI: 316001266.

Date/timePositionNaut miles runAvg speedWind from/ knotsBaromVisibWave heightAir tempDewpointWater temp
2017-Feb-25 12:26N 49°11' W 123°52'0 0.0
2017-Feb-25 11:20N 49°11' W 123°52'0 0.0
2017-Feb-25 10:23N 49°11' W 123°52'0 0.0
2017-Feb-25 09:17N 49°11' W 123°52'0 0.0
2017-Feb-25 08:17N 49°11' W 123°52'0 0.0
2017-Feb-25 07:29N 49°11' W 123°52'0 0.1
2017-Feb-25 06:31N 49°11' W 123°52'0 0.1
2017-Feb-25 05:29N 49°11' W 123°52'1 1.2
2017-Feb-25 04:33N 49°10' W 123°53'1 0.9
2017-Feb-25 03:32N 49°11' W 123°52'0 0.2
2017-Feb-25 02:31N 49°11' W 123°52'0 0.0
2017-Feb-25 01:33N 49°11' W 123°52'2 1.9
2017-Feb-25 00:33N 49°10' W 123°54'1 1.0
2017-Feb-24 23:33N 49°10' W 123°56'1 1.0
2017-Feb-24 22:33N 49°10' W 123°54'2 1.9
2017-Feb-24 21:33N 49°11' W 123°52'0 0.0
2017-Feb-24 20:33N 49°11' W 123°52'0 0.5
2017-Feb-24 19:32N 49°11' W 123°52'2 2.5
2017-Feb-24 18:33N 49°10' W 123°56'0 0.0
2017-Feb-24 17:33N 49°10' W 123°56'3 2.6
2017-Feb-24 16:32N 49°11' W 123°52'0 0.3
2017-Feb-24 15:30N 49°11' W 123°52'2 2.1
2017-Feb-24 14:32N 49°10' W 123°55'2 0.3
2017-Feb-24 08:33N 49°11' W 123°52'0 0.0
2017-Feb-24 07:24N 49°11' W 123°52'1 0.6
2017-Feb-24 06:33N 49°11' W 123°52'1 0.5
2017-Feb-24 05:33N 49°11' W 123°52'1 1.1
2017-Feb-24 04:33N 49°10' W 123°53'1 1.0
2017-Feb-24 03:32N 49°11' W 123°52'0 0.0
2017-Feb-24 02:29N 49°11' W 123°52'0 0.0
2017-Feb-24 01:33N 49°11' W 123°52'2 2.0
2017-Feb-24 00:34N 49°10' W 123°54'1 0.9
2017-Feb-23 23:33N 49°10' W 123°56'1 1.0
2017-Feb-23 22:33N 49°10' W 123°54'2 1.9
2017-Feb-23 21:32N 49°11' W 123°52'0 0.0
2017-Feb-23 20:31N 49°11' W 123°52'1 1.4
2017-Feb-23 19:33N 49°11' W 123°54'2 1.6
2017-Feb-23 18:33N 49°10' W 123°56'0 0.2
2017-Feb-23 17:33N 49°10' W 123°55'2 2.2
2017-Feb-23 16:33N 49°11' W 123°52'0 0.5
2017-Feb-23 15:33N 49°11' W 123°52'2 1.8
2017-Feb-23 14:31N 49°10' W 123°54'2 0.3
2017-Feb-23 07:21N 49°11' W 123°52'3 2.3
2017-Feb-23 06:05N 49°10' W 123°56'2 2.8
2017-Feb-23 05:19N 49°11' W 123°53'0 0.3
2017-Feb-23 04:30N 49°11' W 123°52'0 0.1
2017-Feb-23 03:31N 49°11' W 123°52'2 1.6
2017-Feb-23 02:14N 49°10' W 123°55'2 2.7
2017-Feb-23 01:21N 49°11' W 123°52'0 0.1
2017-Feb-23 00:09N 49°11' W 123°52'1 0.6
2017-Feb-22 23:10N 49°11' W 123°52'2 2.7
2017-Feb-22 22:33N 49°10' W 123°55'2 1.8
2017-Feb-22 21:31N 49°11' W 123°52'0 0.5
2017-Feb-22 20:32N 49°11' W 123°52'2 1.1
2017-Feb-22 18:29N 49°10' W 123°55'0 0.0
2017-Feb-22 17:15N 49°10' W 123°55'0 0.5
2017-Feb-22 16:23N 49°10' W 123°56'1 0.4
2017-Feb-22 14:32N 49°10' W 123°55'1 0.1
2017-Feb-22 07:10N 49°10' W 123°54'1 0.3
2017-Feb-22 01:33N 49°11' W 123°52'0 0.0
2017-Feb-22 00:06N 49°11' W 123°52'3 0.4
2017-Feb-21 17:33N 49°10' W 123°56'2 1.5
2017-Feb-21 16:29N 49°10' W 123°54'1 1.3
2017-Feb-21 15:30N 49°11' W 123°52'1 1.4
2017-Feb-21 14:32N 49°10' W 123°54'2 0.0
2017-Feb-20 06:05N 49°10' W 123°56'1 1.6
2017-Feb-20 05:15N 49°10' W 123°54'0 0.1
2017-Feb-19 21:24N 49°11' W 123°53'1 1.3
2017-Feb-19 20:33N 49°11' W 123°52'2 1.9
2017-Feb-19 19:33N 49°10' W 123°54'0 0.4
2017-Feb-19 18:22N 49°10' W 123°55'1 0.6
2017-Feb-19 17:28N 49°10' W 123°56'2 1.6
2017-Feb-19 16:24N 49°11' W 123°53'1 0.1
2017-Feb-19 07:24N 49°11' W 123°52'0 0.0
2017-Feb-19 06:33N 49°11' W 123°52'0 0.0
2017-Feb-19 05:29N 49°11' W 123°52'0 0.5
2017-Feb-19 04:33N 49°11' W 123°52'0 0.0
2017-Feb-19 03:32N 49°11' W 123°52'0 0.3
2017-Feb-19 02:29N 49°11' W 123°53'2 1.2
2017-Feb-19 01:07N 49°10' W 123°55'2 0.3
2017-Feb-18 20:10N 49°11' W 123°53'1 0.7
2017-Feb-18 19:07N 49°11' W 123°52'3 4.6
2017-Feb-18 18:29N 49°10' W 123°56'1 0.4
2017-Feb-18 15:07N 49°10' W 123°54'1 0.1
2017-Feb-18 07:04N 49°10' W 123°55'1 1.9
2017-Feb-18 06:17N 49°11' W 123°53'0 0.4
2017-Feb-18 05:19N 49°11' W 123°52'0 0.2
2017-Feb-18 04:29N 49°11' W 123°52'1 0.5
2017-Feb-18 03:27N 49°11' W 123°53'1 0.7
2017-Feb-18 02:26N 49°11' W 123°52'0 0.2
2017-Feb-18 00:30N 49°11' W 123°53'2 1.7
2017-Feb-17 23:27N 49°10' W 123°55'0 0.3
2017-Feb-17 22:11N 49°10' W 123°56'2 3.3
2017-Feb-17 21:30N 49°11' W 123°53'1 0.1
2017-Feb-17 15:24N 49°11' W 123°52'1 1.5
2017-Feb-17 14:28N 49°10' W 123°54'0 0.0
2017-Feb-17 07:09N 49°10' W 123°54'1 2.4
2017-Feb-17 06:32N 49°11' W 123°52'3 1.8
2017-Feb-17 05:04N 49°10' W 123°56'2 3.3
2017-Feb-17 04:31N 49°11' W 123°53'1 1.2
2017-Feb-17 03:19N 49°10' W 123°55'2 3.0
2017-Feb-17 02:34N 49°11' W 123°52'0 0.1
2017-Feb-17 01:18N 49°11' W 123°52'3 1.6
2017-Feb-16 23:32N 49°10' W 123°56'1 1.1
2017-Feb-16 22:33N 49°10' W 123°54'0 0.4
2017-Feb-16 21:21N 49°10' W 123°54'1 1.8
2017-Feb-16 20:33N 49°11' W 123°52'2 1.6
2017-Feb-16 19:33N 49°10' W 123°54'1 1.2
2017-Feb-16 18:32N 49°10' W 123°56'1 0.5
2017-Feb-16 17:30N 49°10' W 123°55'2 1.6
2017-Feb-16 16:27N 49°11' W 123°53'1 0.7
2017-Feb-16 14:33N 49°10' W 123°55'2 1.8
2017-Feb-16 13:24N 49°11' W 123°52'0 0.0
2017-Feb-16 12:21N 49°11' W 123°52'0 0.0
2017-Feb-16 08:09N 49°11' W 123°52'0 0.0
2017-Feb-16 07:26N 49°11' W 123°52'3 3.3
2017-Feb-16 06:33N 49°10' W 123°56'3 2.6
2017-Feb-16 05:33N 49°11' W 123°52'1 1.0
2017-Feb-16 04:34N 49°11' W 123°54'1 1.3
2017-Feb-16 03:33N 49°11' W 123°52'0 0.0
2017-Feb-16 02:32N 49°11' W 123°52'0 0.0
2017-Feb-16 01:32N 49°11' W 123°52'2 2.1
2017-Feb-16 00:33N 49°10' W 123°55'1 0.8
2017-Feb-15 23:30N 49°10' W 123°56'1 1.6
2017-Feb-15 22:33N 49°10' W 123°54'1 1.4
2017-Feb-15 21:33N 49°11' W 123°52'0 0.0
2017-Feb-15 20:33N 49°11' W 123°52'2 1.6
2017-Feb-15 19:33N 49°10' W 123°54'1 1.3
2017-Feb-15 18:33N 49°10' W 123°56'1 1.2
2017-Feb-15 17:33N 49°10' W 123°54'2 1.7
2017-Feb-15 16:32N 49°11' W 123°52'0 0.0
2017-Feb-15 15:33N 49°11' W 123°52'2 2.0
2017-Feb-15 14:33N 49°10' W 123°55'  

Dump ship's entire track history